sensor_id;sensor_type;location;lat;lon;timestamp;pressure;altitude;pressure_sealevel;temperature;humidity
37304;BME280;23188;51.188;16.374;2023-04-08T00:14:27;100425.59;;;5.73;100.00
37304;BME280;23188;51.188;16.374;2023-04-08T00:51:01;100441.80;;;6.47;100.00
37304;BME280;23188;51.188;16.374;2023-04-08T00:55:06;100442.32;;;6.50;100.00
37304;BME280;23188;51.188;16.374;2023-04-08T00:59:32;100441.52;;;6.54;100.00
37304;BME280;23188;51.188;16.374;2023-04-08T01:03:56;100443.25;;;6.52;100.00
37304;BME280;23188;51.188;16.374;2023-04-08T01:22:34;100461.82;;;7.15;100.00
37304;BME280;23188;51.188;16.374;2023-04-08T01:26:40;100460.48;;;7.25;100.00
37304;BME280;23188;51.188;16.374;2023-04-08T01:35:18;100465.56;;;7.42;100.00
37304;BME280;23188;51.188;16.374;2023-04-08T01:39:27;100461.48;;;7.48;100.00
37304;BME280;23188;51.188;16.374;2023-04-08T01:43:32;100462.48;;;7.52;100.00
37304;BME280;23188;51.188;16.374;2023-04-08T01:47:44;100469.85;;;7.55;100.00
37304;BME280;23188;51.188;16.374;2023-04-08T01:51:56;100472.98;;;7.55;100.00
37304;BME280;23188;51.188;16.374;2023-04-08T02:15:01;100488.37;;;7.17;100.00
37304;BME280;23188;51.188;16.374;2023-04-08T02:24:05;100498.16;;;7.10;100.00
37304;BME280;23188;51.188;16.374;2023-04-08T02:41:49;100519.52;;;6.87;100.00
37304;BME280;23188;51.188;16.374;2023-04-08T02:54:41;100522.11;;;6.82;100.00
37304;BME280;23188;51.188;16.374;2023-04-08T03:03:03;100533.23;;;6.91;100.00
37304;BME280;23188;51.188;16.374;2023-04-08T03:07:07;100537.70;;;6.95;100.00
37304;BME280;23188;51.188;16.374;2023-04-08T03:11:12;100543.86;;;6.95;100.00
37304;BME280;23188;51.188;16.374;2023-04-08T03:15:18;100548.45;;;6.95;100.00
37304;BME280;23188;51.188;16.374;2023-04-08T04:05:57;100593.39;;;6.24;100.00
37304;BME280;23188;51.188;16.374;2023-04-08T05:07:27;100659.55;;;5.94;100.00
37304;BME280;23188;51.188;16.374;2023-04-08T05:11:35;100669.42;;;5.90;100.00
37304;BME280;23188;51.188;16.374;2023-04-08T05:20:13;100676.45;;;5.91;100.00
37304;BME280;23188;51.188;16.374;2023-04-08T05:51:03;100714.83;;;6.00;100.00
37304;BME280;23188;51.188;16.374;2023-04-08T05:55:07;100722.19;;;6.01;100.00
37304;BME280;23188;51.188;16.374;2023-04-08T05:59:11;100728.08;;;5.96;100.00
37304;BME280;23188;51.188;16.374;2023-04-08T06:28:31;100761.67;;;6.07;100.00
37304;BME280;23188;51.188;16.374;2023-04-08T06:32:58;100767.52;;;6.09;100.00
37304;BME280;23188;51.188;16.374;2023-04-08T06:37:07;100771.42;;;6.12;100.00
37304;BME280;23188;51.188;16.374;2023-04-08T06:41:11;100775.83;;;6.15;100.00
37304;BME280;23188;51.188;16.374;2023-04-08T06:45:16;100780.13;;;6.21;100.00
37304;BME280;23188;51.188;16.374;2023-04-08T06:54:00;100788.34;;;6.15;100.00
37304;BME280;23188;51.188;16.374;2023-04-08T06:58:05;100797.13;;;6.16;99.58
37304;BME280;23188;51.188;16.374;2023-04-08T07:02:09;100799.41;;;6.12;98.85
37304;BME280;23188;51.188;16.374;2023-04-08T07:06:14;100804.50;;;6.09;98.86
37304;BME280;23188;51.188;16.374;2023-04-08T07:10:18;100807.78;;;6.17;98.94
37304;BME280;23188;51.188;16.374;2023-04-08T07:14:22;100812.63;;;6.22;98.88
37304;BME280;23188;51.188;16.374;2023-04-08T07:22:58;100826.28;;;6.39;97.24
37304;BME280;23188;51.188;16.374;2023-04-08T07:27:03;100828.25;;;6.45;95.59
37304;BME280;23188;51.188;16.374;2023-04-08T07:31:15;100832.73;;;6.51;95.01
37304;BME280;23188;51.188;16.374;2023-04-08T07:35:19;100836.67;;;6.52;93.09
37304;BME280;23188;51.188;16.374;2023-04-08T07:39:26;100839.84;;;6.68;94.65
37304;BME280;23188;51.188;16.374;2023-04-08T07:43:32;100844.48;;;6.77;91.95
37304;BME280;23188;51.188;16.374;2023-04-08T07:47:42;100848.08;;;6.85;90.33
37304;BME280;23188;51.188;16.374;2023-04-08T08:10:13;100867.94;;;7.29;86.98
37304;BME280;23188;51.188;16.374;2023-04-08T08:14:18;100871.96;;;7.45;86.11
37304;BME280;23188;51.188;16.374;2023-04-08T08:18:21;100870.70;;;7.48;85.47
37304;BME280;23188;51.188;16.374;2023-04-08T08:22:24;100874.42;;;7.54;84.01
37304;BME280;23188;51.188;16.374;2023-04-08T08:26:27;100874.46;;;7.62;85.74
37304;BME280;23188;51.188;16.374;2023-04-08T08:30:31;100880.02;;;7.79;83.96
37304;BME280;23188;51.188;16.374;2023-04-08T08:34:35;100885.26;;;7.82;84.60
37304;BME280;23188;51.188;16.374;2023-04-08T08:38:39;100884.66;;;7.78;84.11
37304;BME280;23188;51.188;16.374;2023-04-08T08:42:52;100888.52;;;7.87;83.92
37304;BME280;23188;51.188;16.374;2023-04-08T08:46:55;100891.52;;;7.99;83.73
37304;BME280;23188;51.188;16.374;2023-04-08T08:50:58;100895.35;;;8.00;80.80
37304;BME280;23188;51.188;16.374;2023-04-08T08:55:04;100899.22;;;7.97;79.39
37304;BME280;23188;51.188;16.374;2023-04-08T09:18:57;100940.84;;;7.77;81.68
37304;BME280;23188;51.188;16.374;2023-04-08T09:23:10;100941.96;;;7.73;81.48
37304;BME280;23188;51.188;16.374;2023-04-08T09:27:56;100951.31;;;7.73;82.10
37304;BME280;23188;51.188;16.374;2023-04-08T09:31:54;100953.75;;;7.83;81.83
37304;BME280;23188;51.188;16.374;2023-04-08T09:35:58;100952.64;;;7.93;79.78
37304;BME280;23188;51.188;16.374;2023-04-08T09:40:01;100961.21;;;8.03;80.00
37304;BME280;23188;51.188;16.374;2023-04-08T09:44:07;100965.58;;;8.04;78.92
37304;BME280;23188;51.188;16.374;2023-04-08T09:48:13;100969.50;;;8.06;78.70
37304;BME280;23188;51.188;16.374;2023-04-08T09:52:32;100975.25;;;8.14;78.40
37304;BME280;23188;51.188;16.374;2023-04-08T09:56:49;100972.93;;;8.26;76.50
37304;BME280;23188;51.188;16.374;2023-04-08T10:00:54;100973.23;;;8.32;75.73
37304;BME280;23188;51.188;16.374;2023-04-08T10:05:00;100976.70;;;8.42;75.70
37304;BME280;23188;51.188;16.374;2023-04-08T10:09:11;100977.56;;;8.42;76.22
37304;BME280;23188;51.188;16.374;2023-04-08T10:13:17;100975.04;;;8.23;78.06
37304;BME280;23188;51.188;16.374;2023-04-08T10:26:53;100992.81;;;8.33;75.83
37304;BME280;23188;51.188;16.374;2023-04-08T10:31:01;100994.67;;;8.37;75.61
37304;BME280;23188;51.188;16.374;2023-04-08T10:35:06;100998.45;;;8.39;76.30
37304;BME280;23188;51.188;16.374;2023-04-08T10:39:12;101004.58;;;8.40;78.82
37304;BME280;23188;51.188;16.374;2023-04-08T10:43:18;101006.73;;;8.51;77.72
37304;BME280;23188;51.188;16.374;2023-04-08T10:47:32;101005.43;;;8.67;76.86
37304;BME280;23188;51.188;16.374;2023-04-08T10:51:35;101005.44;;;8.79;77.07
37304;BME280;23188;51.188;16.374;2023-04-08T10:55:48;101003.98;;;8.88;77.67
37304;BME280;23188;51.188;16.374;2023-04-08T10:59:51;101004.58;;;8.95;76.72
37304;BME280;23188;51.188;16.374;2023-04-08T11:03:54;101006.14;;;9.04;76.39
37304;BME280;23188;51.188;16.374;2023-04-08T11:08:04;101007.11;;;9.11;76.24
37304;BME280;23188;51.188;16.374;2023-04-08T11:12:11;101008.98;;;9.21;75.15
37304;BME280;23188;51.188;16.374;2023-04-08T11:16:20;101010.45;;;9.22;73.60
37304;BME280;23188;51.188;16.374;2023-04-08T11:20:27;101006.95;;;9.33;74.37
37304;BME280;23188;51.188;16.374;2023-04-08T11:24:30;101003.33;;;9.43;74.41
37304;BME280;23188;51.188;16.374;2023-04-08T11:28:34;101005.44;;;9.48;72.89
37304;BME280;23188;51.188;16.374;2023-04-08T11:32:41;101001.13;;;9.49;72.42
37304;BME280;23188;51.188;16.374;2023-04-08T11:36:45;101001.70;;;9.57;72.83
37304;BME280;23188;51.188;16.374;2023-04-08T11:40:52;100999.27;;;9.75;74.62
37304;BME280;23188;51.188;16.374;2023-04-08T11:44:56;100998.70;;;9.97;73.11
37304;BME280;23188;51.188;16.374;2023-04-08T11:49:04;100998.08;;;10.19;73.63
37304;BME280;23188;51.188;16.374;2023-04-08T11:53:21;100997.34;;;10.24;72.46
37304;BME280;23188;51.188;16.374;2023-04-08T11:57:38;100998.48;;;10.52;72.80
37304;BME280;23188;51.188;16.374;2023-04-08T12:01:53;101001.08;;;10.76;70.35
37304;BME280;23188;51.188;16.374;2023-04-08T12:15:30;101001.34;;;11.00;68.99
37304;BME280;23188;51.188;16.374;2023-04-08T12:19:45;101001.23;;;11.09;67.47
37304;BME280;23188;51.188;16.374;2023-04-08T12:23:49;101000.96;;;11.15;68.85
37304;BME280;23188;51.188;16.374;2023-04-08T12:27:55;101001.33;;;11.27;69.64
37304;BME280;23188;51.188;16.374;2023-04-08T12:31:58;101004.73;;;11.36;68.13
37304;BME280;23188;51.188;16.374;2023-04-08T12:36:02;101006.55;;;11.41;68.37
37304;BME280;23188;51.188;16.374;2023-04-08T12:40:09;101006.77;;;11.28;71.92
37304;BME280;23188;51.188;16.374;2023-04-08T12:44:13;101008.45;;;11.05;71.74
37304;BME280;23188;51.188;16.374;2023-04-08T12:48:17;101009.07;;;10.81;72.83
37304;BME280;23188;51.188;16.374;2023-04-08T12:52:21;101009.33;;;10.59;72.30
37304;BME280;23188;51.188;16.374;2023-04-08T12:56:28;101006.75;;;10.53;73.03
37304;BME280;23188;51.188;16.374;2023-04-08T13:00:35;101006.74;;;10.71;70.97
37304;BME280;23188;51.188;16.374;2023-04-08T13:04:42;101008.39;;;10.75;73.00
37304;BME280;23188;51.188;16.374;2023-04-08T13:08:47;101009.80;;;10.60;72.36
37304;BME280;23188;51.188;16.374;2023-04-08T13:13:03;101007.52;;;10.57;70.93
37304;BME280;23188;51.188;16.374;2023-04-08T13:17:15;101009.84;;;10.67;71.73
37304;BME280;23188;51.188;16.374;2023-04-08T13:21:22;101010.02;;;10.78;71.87
37304;BME280;23188;51.188;16.374;2023-04-08T13:35:01;101005.54;;;11.23;68.70
37304;BME280;23188;51.188;16.374;2023-04-08T13:39:05;101004.79;;;11.19;70.00
37304;BME280;23188;51.188;16.374;2023-04-08T13:43:11;100996.84;;;11.23;70.26
37304;BME280;23188;51.188;16.374;2023-04-08T13:47:14;100993.83;;;11.42;68.99
37304;BME280;23188;51.188;16.374;2023-04-08T13:51:18;100989.39;;;11.66;67.50
37304;BME280;23188;51.188;16.374;2023-04-08T13:55:21;100991.87;;;11.62;68.63
37304;BME280;23188;51.188;16.374;2023-04-08T13:59:24;100993.27;;;11.60;70.46
37304;BME280;23188;51.188;16.374;2023-04-08T14:03:28;100990.55;;;11.68;71.46
37304;BME280;23188;51.188;16.374;2023-04-08T14:07:31;100989.73;;;11.76;70.74
37304;BME280;23188;51.188;16.374;2023-04-08T14:11:35;100986.91;;;11.78;70.32
37304;BME280;23188;51.188;16.374;2023-04-08T14:15:40;100986.69;;;11.74;70.97
37304;BME280;23188;51.188;16.374;2023-04-08T14:19:44;100993.31;;;11.85;71.66
37304;BME280;23188;51.188;16.374;2023-04-08T14:23:48;100987.04;;;12.07;71.21
37304;BME280;23188;51.188;16.374;2023-04-08T14:27:51;100988.24;;;12.22;70.07
37304;BME280;23188;51.188;16.374;2023-04-08T14:32:00;100983.17;;;12.27;69.90
37304;BME280;23188;51.188;16.374;2023-04-08T14:36:04;100991.08;;;12.31;70.40
37304;BME280;23188;51.188;16.374;2023-04-08T14:40:08;100995.48;;;12.48;70.40
37304;BME280;23188;51.188;16.374;2023-04-08T14:44:13;100998.26;;;12.56;68.87
37304;BME280;23188;51.188;16.374;2023-04-08T14:48:18;101000.05;;;12.62;69.08
37304;BME280;23188;51.188;16.374;2023-04-08T14:52:21;101002.67;;;12.65;68.63
37304;BME280;23188;51.188;16.374;2023-04-08T14:56:25;101002.11;;;12.59;68.97
37304;BME280;23188;51.188;16.374;2023-04-08T15:00:30;100998.81;;;12.51;70.02
37304;BME280;23188;51.188;16.374;2023-04-08T16:29:42;101007.55;;;10.67;77.97
37304;BME280;23188;51.188;16.374;2023-04-08T16:33:48;101009.42;;;10.58;76.47
37304;BME280;23188;51.188;16.374;2023-04-08T16:52:25;101020.49;;;10.07;79.47
37304;BME280;23188;51.188;16.374;2023-04-08T16:56:41;101018.84;;;10.00;80.85
37304;BME280;23188;51.188;16.374;2023-04-08T17:05:29;101022.98;;;9.78;81.73
37304;BME280;23188;51.188;16.374;2023-04-08T17:09:58;101030.61;;;9.67;82.35
37304;BME280;23188;51.188;16.374;2023-04-08T17:14:07;101032.98;;;9.54;82.36
37304;BME280;23188;51.188;16.374;2023-04-08T17:18:13;101034.78;;;9.40;81.88
37304;BME280;23188;51.188;16.374;2023-04-08T17:37:01;101049.75;;;8.83;81.28
37304;BME280;23188;51.188;16.374;2023-04-08T17:46:54;101056.64;;;8.65;81.28
37304;BME280;23188;51.188;16.374;2023-04-08T18:00:55;101068.25;;;8.22;83.34
37304;BME280;23188;51.188;16.374;2023-04-08T18:09:46;101077.63;;;8.18;85.26
37304;BME280;23188;51.188;16.374;2023-04-08T18:13:50;101083.06;;;8.07;85.94
37304;BME280;23188;51.188;16.374;2023-04-08T18:17:58;101083.73;;;8.04;86.43
37304;BME280;23188;51.188;16.374;2023-04-08T18:22:01;101085.41;;;8.09;86.28
37304;BME280;23188;51.188;16.374;2023-04-08T18:26:06;101086.15;;;8.11;87.79
37304;BME280;23188;51.188;16.374;2023-04-08T18:30:10;101093.52;;;7.97;91.14
37304;BME280;23188;51.188;16.374;2023-04-08T18:34:29;101099.87;;;7.66;93.44
37304;BME280;23188;51.188;16.374;2023-04-08T18:38:34;101103.36;;;7.41;95.63
37304;BME280;23188;51.188;16.374;2023-04-08T18:42:40;101101.72;;;7.23;96.75
37304;BME280;23188;51.188;16.374;2023-04-08T18:46:44;101110.73;;;7.02;97.72
37304;BME280;23188;51.188;16.374;2023-04-08T18:50:50;101113.98;;;6.94;97.44
37304;BME280;23188;51.188;16.374;2023-04-08T18:54:54;101109.72;;;6.88;96.62
37304;BME280;23188;51.188;16.374;2023-04-08T18:58:58;101114.79;;;6.72;97.71
37304;BME280;23188;51.188;16.374;2023-04-08T19:03:01;101115.80;;;6.56;99.43
37304;BME280;23188;51.188;16.374;2023-04-08T19:07:08;101118.70;;;6.37;100.00
37304;BME280;23188;51.188;16.374;2023-04-08T19:11:13;101120.80;;;6.37;100.00
37304;BME280;23188;51.188;16.374;2023-04-08T19:15:17;101122.59;;;6.37;100.00
37304;BME280;23188;51.188;16.374;2023-04-08T19:19:21;101125.07;;;6.33;100.00
37304;BME280;23188;51.188;16.374;2023-04-08T19:23:24;101126.59;;;6.27;100.00
37304;BME280;23188;51.188;16.374;2023-04-08T19:32:07;101126.56;;;6.21;100.00
37304;BME280;23188;51.188;16.374;2023-04-08T19:36:12;101133.95;;;6.17;100.00
37304;BME280;23188;51.188;16.374;2023-04-08T19:40:16;101132.32;;;6.18;100.00
37304;BME280;23188;51.188;16.374;2023-04-08T19:44:22;101135.60;;;6.26;100.00
37304;BME280;23188;51.188;16.374;2023-04-08T19:48:29;101137.88;;;6.20;100.00
37304;BME280;23188;51.188;16.374;2023-04-08T19:53:09;101137.82;;;6.21;100.00
37304;BME280;23188;51.188;16.374;2023-04-08T19:57:30;101138.36;;;6.24;100.00
37304;BME280;23188;51.188;16.374;2023-04-08T20:01:36;101141.17;;;6.28;100.00
37304;BME280;23188;51.188;16.374;2023-04-08T20:05:50;101141.55;;;6.27;100.00
37304;BME280;23188;51.188;16.374;2023-04-08T20:09:54;101144.77;;;6.23;100.00
37304;BME280;23188;51.188;16.374;2023-04-08T20:13:59;101140.46;;;6.32;100.00
37304;BME280;23188;51.188;16.374;2023-04-08T20:18:03;101141.49;;;6.36;100.00
37304;BME280;23188;51.188;16.374;2023-04-08T20:22:07;101137.30;;;6.38;100.00
37304;BME280;23188;51.188;16.374;2023-04-08T20:26:11;101139.20;;;6.39;100.00
37304;BME280;23188;51.188;16.374;2023-04-08T20:30:16;101135.25;;;6.37;100.00
37304;BME280;23188;51.188;16.374;2023-04-08T20:34:20;101137.45;;;6.42;100.00
37304;BME280;23188;51.188;16.374;2023-04-08T20:38:24;101138.34;;;6.42;100.00
37304;BME280;23188;51.188;16.374;2023-04-08T20:42:32;101139.98;;;6.41;100.00
37304;BME280;23188;51.188;16.374;2023-04-08T20:46:37;101140.27;;;6.46;100.00
37304;BME280;23188;51.188;16.374;2023-04-08T20:50:54;101138.89;;;6.38;100.00
37304;BME280;23188;51.188;16.374;2023-04-08T20:55:05;101138.22;;;6.27;100.00
37304;BME280;23188;51.188;16.374;2023-04-08T20:59:13;101136.77;;;6.21;100.00
37304;BME280;23188;51.188;16.374;2023-04-08T21:03:27;101138.98;;;6.15;100.00
37304;BME280;23188;51.188;16.374;2023-04-08T21:07:31;101136.38;;;6.11;100.00
37304;BME280;23188;51.188;16.374;2023-04-08T21:11:34;101139.27;;;6.09;100.00
37304;BME280;23188;51.188;16.374;2023-04-08T21:15:38;101138.06;;;6.05;100.00
37304;BME280;23188;51.188;16.374;2023-04-08T21:19:41;101141.38;;;6.06;100.00
37304;BME280;23188;51.188;16.374;2023-04-08T21:28:47;101143.84;;;6.31;100.00
37304;BME280;23188;51.188;16.374;2023-04-08T21:32:53;101140.84;;;6.38;100.00
37304;BME280;23188;51.188;16.374;2023-04-08T21:37:01;101140.02;;;6.37;100.00
37304;BME280;23188;51.188;16.374;2023-04-08T21:41:05;101142.84;;;6.26;100.00
37304;BME280;23188;51.188;16.374;2023-04-08T21:49:36;101138.20;;;6.13;100.00
37304;BME280;23188;51.188;16.374;2023-04-08T21:53:40;101138.64;;;6.07;100.00
37304;BME280;23188;51.188;16.374;2023-04-08T21:57:43;101146.44;;;5.99;100.00
37304;BME280;23188;51.188;16.374;2023-04-08T22:01:48;101148.58;;;5.99;100.00
37304;BME280;23188;51.188;16.374;2023-04-08T22:05:51;101151.61;;;6.01;100.00
37304;BME280;23188;51.188;16.374;2023-04-08T22:09:55;101148.08;;;5.98;100.00
37304;BME280;23188;51.188;16.374;2023-04-08T22:13:59;101146.44;;;5.91;100.00
37304;BME280;23188;51.188;16.374;2023-04-08T22:18:02;101145.15;;;5.85;100.00
37304;BME280;23188;51.188;16.374;2023-04-08T22:22:07;101143.73;;;5.82;100.00
37304;BME280;23188;51.188;16.374;2023-04-08T22:26:10;101146.02;;;5.85;100.00
37304;BME280;23188;51.188;16.374;2023-04-08T22:30:13;101144.27;;;5.93;100.00
37304;BME280;23188;51.188;16.374;2023-04-08T22:34:16;101137.36;;;5.98;100.00
37304;BME280;23188;51.188;16.374;2023-04-08T22:38:19;101138.80;;;6.01;100.00
37304;BME280;23188;51.188;16.374;2023-04-08T22:42:24;101136.48;;;6.01;100.00
37304;BME280;23188;51.188;16.374;2023-04-08T22:46:28;101134.29;;;5.99;100.00
37304;BME280;23188;51.188;16.374;2023-04-08T22:50:33;101133.06;;;5.99;100.00
37304;BME280;23188;51.188;16.374;2023-04-08T22:54:36;101134.55;;;5.97;100.00
37304;BME280;23188;51.188;16.374;2023-04-08T22:58:40;101132.79;;;5.97;100.00
37304;BME280;23188;51.188;16.374;2023-04-08T23:02:44;101133.65;;;6.02;100.00
37304;BME280;23188;51.188;16.374;2023-04-08T23:06:48;101132.30;;;6.00;100.00
37304;BME280;23188;51.188;16.374;2023-04-08T23:10:51;101138.96;;;5.97;100.00
37304;BME280;23188;51.188;16.374;2023-04-08T23:14:55;101133.16;;;6.00;100.00
37304;BME280;23188;51.188;16.374;2023-04-08T23:18:58;101136.84;;;5.97;100.00
37304;BME280;23188;51.188;16.374;2023-04-08T23:23:02;101138.34;;;5.99;100.00
37304;BME280;23188;51.188;16.374;2023-04-08T23:27:05;101135.27;;;6.01;100.00
37304;BME280;23188;51.188;16.374;2023-04-08T23:31:09;101135.05;;;6.02;100.00
37304;BME280;23188;51.188;16.374;2023-04-08T23:35:12;101134.74;;;6.08;100.00
37304;BME280;23188;51.188;16.374;2023-04-08T23:39:15;101129.95;;;6.09;100.00
37304;BME280;23188;51.188;16.374;2023-04-08T23:43:19;101131.58;;;6.11;100.00
37304;BME280;23188;51.188;16.374;2023-04-08T23:47:22;101133.23;;;6.14;100.00
37304;BME280;23188;51.188;16.374;2023-04-08T23:51:26;101133.73;;;6.22;100.00
37304;BME280;23188;51.188;16.374;2023-04-08T23:55:30;101127.73;;;6.25;100.00
37304;BME280;23188;51.188;16.374;2023-04-08T23:59:33;101117.19;;;6.22;100.00
